Time;durP1;ratioP1;P1;durP2;ratioP2;P2;SDS_P1;SDS_P2;PMS_P1;PMS_P2;Temp;Humidity;BMP_temperature;BMP_pressure;BME280_temperature;BME280_humidity;BME280_pressure;Samples;Min_cycle;Max_cycle;Signal;HPM_P1;HPM_P2
2023/05/21 00:01:41;;;;;;;6.53;3.10;;;14.00;99.90;;;;;;5027433;28;20205;-73
2023/05/21 00:04:08;;;;;;;7.68;3.33;;;14.00;99.90;;;;;;5028033;28;20112;-72
2023/05/21 00:06:37;;;;;;;7.60;3.22;;;14.00;99.90;;;;;;5028250;28;20124;-73
2023/05/21 00:09:04;;;;;;;3.28;2.60;;;14.00;99.90;;;;;;5028353;28;20049;-73
2023/05/21 00:11:30;;;;;;;3.58;2.85;;;14.00;99.90;;;;;;5028570;28;20095;-73
2023/05/21 00:13:56;;;;;;;5.60;3.38;;;14.00;99.90;;;;;;5058305;28;20034;-73
2023/05/21 00:16:22;;;;;;;5.75;2.97;;;14.00;99.90;;;;;;5027985;28;20037;-73
2023/05/21 00:18:48;;;;;;;4.85;3.67;;;14.00;99.90;;;;;;5024388;28;20037;-73
2023/05/21 00:21:21;;;;;;;5.43;3.63;;;14.00;99.90;;;;;;5024109;28;20072;-73
2023/05/21 00:23:53;;;;;;;5.63;3.28;;;14.00;99.90;;;;;;5024757;28;20579;-73
2023/05/21 00:26:20;;;;;;;8.43;3.38;;;14.00;99.90;;;;;;5026791;28;20041;-72
2023/05/21 00:28:46;;;;;;;7.75;3.38;;;14.00;99.90;;;;;;5025921;28;20050;-74
2023/05/21 00:31:12;;;;;;;6.57;3.20;;;14.00;99.90;;;;;;5031490;28;20388;-73
2023/05/21 00:33:37;;;;;;;4.45;3.38;;;14.00;99.90;;;;;;5029891;28;20039;-72
2023/05/21 00:36:04;;;;;;;7.18;3.00;;;14.00;99.90;;;;;;5031076;28;20048;-74
2023/05/21 00:38:31;;;;;;;5.03;3.10;;;14.00;99.90;;;;;;5030998;28;20069;-73
2023/05/21 00:41:02;;;;;;;4.03;3.47;;;14.00;99.90;;;;;;5029226;28;20112;-72
2023/05/21 00:43:28;;;;;;;5.20;3.20;;;14.00;99.90;;;;;;5030144;28;20063;-73
2023/05/21 00:45:55;;;;;;;5.20;3.00;;;13.90;99.90;;;;;;5031351;28;20030;-73
2023/05/21 00:48:22;;;;;;;6.50;3.40;;;14.00;99.90;;;;;;5026209;28;20064;-73
2023/05/21 00:50:49;;;;;;;5.72;3.47;;;14.00;99.90;;;;;;5013574;28;20447;-73
2023/05/21 00:53:18;;;;;;;4.43;3.13;;;13.90;99.90;;;;;;5030295;28;20120;-73
2023/05/21 00:55:44;;;;;;;4.80;3.22;;;13.90;99.90;;;;;;5028249;28;20095;-73
2023/05/21 00:58:10;;;;;;;5.55;3.25;;;13.90;99.90;;;;;;5028115;28;20542;-72
2023/05/21 01:00:36;;;;;;;5.03;3.95;;;13.90;99.90;;;;;;5030531;28;20136;-74
2023/05/21 01:03:03;;;;;;;5.25;3.20;;;13.90;99.90;;;;;;5012684;28;20452;-73
2023/05/21 01:05:29;;;;;;;4.32;3.30;;;13.90;99.90;;;;;;5030600;28;20041;-73
2023/05/21 01:07:56;;;;;;;5.88;3.38;;;13.90;99.90;;;;;;5028054;28;20095;-73
2023/05/21 01:10:24;;;;;;;5.90;3.20;;;13.90;99.90;;;;;;5027082;28;20071;-73
2023/05/21 01:12:51;;;;;;;4.20;3.03;;;13.90;99.90;;;;;;5027036;28;20498;-74
2023/05/21 01:15:17;;;;;;;6.35;3.50;;;13.90;99.90;;;;;;5030169;28;20132;-73
2023/05/21 01:17:47;;;;;;;5.07;3.08;;;13.90;99.90;;;;;;5028728;28;20033;-74
2023/05/21 01:20:18;;;;;;;7.47;3.28;;;13.90;99.90;;;;;;5062823;28;20140;-73
2023/05/21 01:22:51;;;;;;;7.80;3.17;;;13.90;99.90;;;;;;5059582;28;20067;-73
2023/05/21 01:25:17;;;;;;;6.60;3.70;;;13.90;99.90;;;;;;5062141;28;20042;-73
2023/05/21 01:27:42;;;;;;;5.18;3.40;;;13.90;99.90;;;;;;5028365;28;20092;-73
2023/05/21 01:30:09;;;;;;;3.67;2.97;;;13.90;99.90;;;;;;5012975;28;20037;-73
2023/05/21 01:32:53;;;;;;;5.93;3.65;;;13.90;99.90;;;;;;5028191;28;20504;-73
2023/05/21 01:35:26;;;;;;;4.78;3.45;;;13.90;99.90;;;;;;5062011;28;20029;-73
2023/05/21 01:38:24;;;;;;;5.68;3.72;;;13.90;99.90;;;;;;5026438;28;20096;-73
2023/05/21 01:41:02;;;;;;;5.25;3.50;;;13.90;99.90;;;;;;5012631;28;20052;-73
2023/05/21 01:43:33;;;;;;;5.60;3.45;;;13.90;99.90;;;;;;5029731;28;20123;-73
2023/05/21 01:46:00;;;;;;;5.97;3.63;;;13.80;99.90;;;;;;5061348;28;20044;-72
2023/05/21 01:48:30;;;;;;;7.85;3.47;;;13.80;99.90;;;;;;5027357;28;20057;-73
2023/05/21 01:51:02;;;;;;;5.85;3.78;;;13.90;99.90;;;;;;5061238;28;20068;-73
2023/05/21 01:53:28;;;;;;;5.47;3.33;;;13.90;99.90;;;;;;5058855;28;20116;-73
2023/05/21 01:55:54;;;;;;;6.30;3.63;;;13.90;99.90;;;;;;5026585;28;20112;-73
2023/05/21 01:58:21;;;;;;;4.57;3.55;;;13.90;99.90;;;;;;5007150;28;20098;-73
2023/05/21 02:00:49;;;;;;;4.45;3.20;;;13.80;99.90;;;;;;5012506;28;20041;-73
2023/05/21 02:03:15;;;;;;;6.00;4.00;;;13.80;99.90;;;;;;5027925;28;20058;-73
2023/05/21 02:05:41;;;;;;;5.68;3.38;;;13.80;99.90;;;;;;5028933;28;20041;-73
2023/05/21 02:08:08;;;;;;;10.00;4.05;;;13.80;99.90;;;;;;5041023;28;20033;-73
2023/05/21 02:10:35;;;;;;;8.50;3.65;;;13.80;99.90;;;;;;5029072;28;20128;-73
2023/05/21 02:13:01;;;;;;;9.10;7.35;;;13.80;99.90;;;;;;5061195;28;20041;-74
2023/05/21 02:15:26;;;;;;;5.72;3.78;;;13.80;99.90;;;;;;5027060;28;20091;-74
2023/05/21 02:17:52;;;;;;;5.15;3.80;;;13.70;99.90;;;;;;5028010;28;20124;-73
2023/05/21 02:20:18;;;;;;;6.78;4.38;;;13.80;99.90;;;;;;5027068;28;20045;-73
2023/05/21 02:22:46;;;;;;;7.07;3.80;;;13.80;99.90;;;;;;5043594;28;20041;-73
2023/05/21 02:25:14;;;;;;;7.00;3.70;;;13.70;99.90;;;;;;5059451;28;20045;-74
2023/05/21 02:27:41;;;;;;;6.18;3.88;;;13.80;99.90;;;;;;5037438;28;20043;-73
2023/05/21 02:30:10;;;;;;;6.07;4.13;;;13.70;99.90;;;;;;5028665;28;20037;-74
2023/05/21 02:32:36;;;;;;;5.18;3.90;;;13.70;99.90;;;;;;5027140;28;20037;-74
2023/05/21 02:35:03;;;;;;;6.35;4.10;;;13.70;99.90;;;;;;5028415;28;20045;-74
2023/05/21 02:37:32;;;;;;;8.90;4.40;;;13.70;99.90;;;;;;5040085;28;20342;-74
2023/05/21 02:39:59;;;;;;;6.93;4.10;;;13.70;99.90;;;;;;5027853;28;20057;-74
2023/05/21 02:42:25;;;;;;;8.82;4.60;;;13.70;99.90;;;;;;5012428;28;20038;-74
2023/05/21 02:44:51;;;;;;;7.70;4.05;;;13.70;99.90;;;;;;5028212;28;20030;-74
2023/05/21 02:47:18;;;;;;;8.95;4.28;;;13.70;99.90;;;;;;5041470;28;20587;-74
2023/05/21 02:49:45;;;;;;;6.47;4.47;;;13.60;99.90;;;;;;5027575;28;20425;-74
2023/05/21 02:52:10;;;;;;;6.82;5.15;;;13.70;99.90;;;;;;5042858;28;20424;-72
2023/05/21 02:54:36;;;;;;;8.82;4.90;;;13.60;99.90;;;;;;5026965;28;20049;-73
2023/05/21 02:57:02;;;;;;;6.32;4.15;;;13.70;99.90;;;;;;5025359;28;20057;-73
2023/05/21 02:59:27;;;;;;;6.30;4.80;;;13.70;99.90;;;;;;5026433;28;20395;-73
2023/05/21 03:01:53;;;;;;;6.13;4.80;;;13.60;99.90;;;;;;5023215;28;20061;-73
2023/05/21 03:04:22;;;;;;;7.13;5.25;;;13.60;99.90;;;;;;5027397;28;20045;-73
2023/05/21 03:06:53;;;;;;;7.13;5.25;;;13.60;99.90;;;;;;5025886;28;20175;-73
2023/05/21 03:09:22;;;;;;;7.30;4.78;;;13.60;99.90;;;;;;5027442;28;20130;-73
2023/05/21 03:11:51;;;;;;;7.28;4.93;;;13.60;99.90;;;;;;5028175;28;20117;-73
2023/05/21 03:14:17;;;;;;;7.03;4.95;;;13.60;99.90;;;;;;5024601;28;20595;-74
2023/05/21 03:16:43;;;;;;;9.30;5.50;;;13.60;99.90;;;;;;5027277;28;20041;-73
2023/05/21 03:19:10;;;;;;;8.07;5.53;;;13.60;99.90;;;;;;5027436;28;20045;-74
2023/05/21 03:21:36;;;;;;;7.78;5.30;;;13.60;99.90;;;;;;5025576;28;20190;-74
2023/05/21 03:24:03;;;;;;;8.80;5.13;;;13.60;99.90;;;;;;5024187;28;20128;-73
2023/05/21 03:26:29;;;;;;;8.70;5.45;;;13.50;99.90;;;;;;5027629;28;20041;-74
2023/05/21 03:28:55;;;;;;;7.13;5.35;;;13.60;99.90;;;;;;5027275;28;20083;-74
2023/05/21 03:31:22;;;;;;;8.95;5.05;;;13.60;99.90;;;;;;5058957;28;20124;-74
2023/05/21 03:33:48;;;;;;;8.48;5.75;;;13.60;99.90;;;;;;5026946;28;20033;-74
2023/05/21 03:36:13;;;;;;;8.70;5.43;;;13.60;99.90;;;;;;5024158;28;20496;-74
2023/05/21 03:38:39;;;;;;;9.73;5.80;;;13.60;99.90;;;;;;5010575;28;20061;-74
2023/05/21 03:41:07;;;;;;;6.40;5.22;;;13.60;99.90;;;;;;5009240;28;20109;-74
2023/05/21 03:43:33;;;;;;;7.97;5.00;;;13.60;99.90;;;;;;5025677;28;20103;-74
2023/05/21 03:45:59;;;;;;;6.15;4.97;;;13.50;99.90;;;;;;5026798;28;20033;-74
2023/05/21 03:48:24;;;;;;;8.07;5.90;;;13.60;99.90;;;;;;5025269;28;20081;-74
2023/05/21 03:50:50;;;;;;;9.45;5.55;;;13.60;99.90;;;;;;5023953;28;20121;-74
2023/05/21 03:53:16;;;;;;;9.40;5.30;;;13.60;99.90;;;;;;5036923;28;20038;-74
2023/05/21 03:55:42;;;;;;;7.95;5.72;;;13.60;99.90;;;;;;5042785;28;20473;-75
2023/05/21 03:58:09;;;;;;;7.65;5.47;;;13.60;99.90;;;;;;5060045;28;20037;-75
2023/05/21 04:00:36;;;;;;;7.90;5.78;;;13.60;99.90;;;;;;5024254;28;20469;-73
2023/05/21 04:03:02;;;;;;;8.23;6.00;;;13.60;99.90;;;;;;5028875;28;20053;-75
2023/05/21 04:05:28;;;;;;;7.45;5.32;;;13.50;99.90;;;;;;5026252;28;20038;-75
2023/05/21 04:07:54;;;;;;;6.90;5.43;;;13.50;99.90;;;;;;5032011;28;20453;-74
2023/05/21 04:10:20;;;;;;;9.70;6.00;;;13.50;99.90;;;;;;5031340;28;20040;-75
2023/05/21 04:12:51;;;;;;;7.03;5.50;;;13.50;99.90;;;;;;5029962;28;20060;-75
2023/05/21 04:15:20;;;;;;;6.88;5.30;;;13.50;99.90;;;;;;5031944;28;20060;-74
2023/05/21 04:17:45;;;;;;;7.00;5.35;;;13.50;99.90;;;;;;5028835;28;20729;-75
2023/05/21 04:20:12;;;;;;;6.45;5.10;;;13.50;99.90;;;;;;5030066;28;20041;-75
2023/05/21 04:22:38;;;;;;;8.73;5.30;;;13.60;99.90;;;;;;5014517;28;20091;-75
2023/05/21 04:25:05;;;;;;;10.13;5.40;;;13.60;99.90;;;;;;5029058;28;20044;-75
2023/05/21 04:27:30;;;;;;;8.63;5.18;;;13.60;99.90;;;;;;5029661;28;20053;-75
2023/05/21 04:29:56;;;;;;;8.77;6.07;;;13.50;99.90;;;;;;5030422;28;20127;-74
2023/05/21 04:32:23;;;;;;;8.20;5.47;;;13.50;99.90;;;;;;5029772;28;20033;-74
2023/05/21 04:34:48;;;;;;;9.05;5.20;;;13.50;99.90;;;;;;5029978;28;20128;-74
2023/05/21 04:37:16;;;;;;;7.82;5.03;;;13.50;99.90;;;;;;5013726;28;20128;-75
2023/05/21 04:39:43;;;;;;;11.43;5.50;;;13.50;99.90;;;;;;5030040;28;20936;-74
2023/05/21 04:42:09;;;;;;;9.98;5.28;;;13.50;99.90;;;;;;5031134;28;20054;-74
2023/05/21 04:44:37;;;;;;;7.65;5.28;;;13.50;99.90;;;;;;5028507;28;20053;-75
2023/05/21 04:47:03;;;;;;;7.90;5.45;;;13.50;99.90;;;;;;5044156;28;20206;-75
2023/05/21 04:49:29;;;;;;;10.85;5.60;;;13.60;99.90;;;;;;5015554;28;20044;-75
2023/05/21 04:51:55;;;;;;;9.02;5.30;;;13.60;99.90;;;;;;5017568;28;20037;-74
2023/05/21 04:54:21;;;;;;;12.38;5.65;;;13.60;99.90;;;;;;5031901;28;20055;-74
2023/05/21 04:56:47;;;;;;;9.27;5.55;;;13.60;99.90;;;;;;5033013;28;20045;-75
2023/05/21 04:59:14;;;;;;;8.02;4.75;;;13.60;99.90;;;;;;5033010;28;20047;-74
2023/05/21 05:01:42;;;;;;;6.32;4.82;;;13.60;99.90;;;;;;5048749;28;20150;-74
2023/05/21 05:04:08;;;;;;;9.43;5.70;;;13.60;99.90;;;;;;5063967;28;20048;-74
2023/05/21 05:06:34;;;;;;;9.93;5.53;;;13.60;99.90;;;;;;5016527;28;20037;-74
2023/05/21 05:09:00;;;;;;;8.70;5.15;;;13.60;99.90;;;;;;5032665;28;20033;-75
2023/05/21 05:11:25;;;;;;;5.88;5.20;;;13.60;99.90;;;;;;5036911;28;20492;-75
2023/05/21 05:13:51;;;;;;;7.28;4.93;;;13.60;99.90;;;;;;5027799;28;20041;-75
2023/05/21 05:16:23;;;;;;;7.10;4.97;;;13.60;99.90;;;;;;5033624;28;20036;-75
2023/05/21 05:18:51;;;;;;;8.85;5.47;;;13.70;99.90;;;;;;5028063;28;20399;-76
2023/05/21 05:21:17;;;;;;;7.13;4.75;;;13.70;99.90;;;;;;5016552;28;20040;-75
2023/05/21 05:23:42;;;;;;;9.50;4.78;;;13.70;99.90;;;;;;5032991;28;20037;-75
2023/05/21 05:26:09;;;;;;;9.13;5.25;;;13.80;99.90;;;;;;5031806;28;20798;-75
2023/05/21 05:28:38;;;;;;;8.55;5.60;;;13.80;99.90;;;;;;5051361;28;20045;-75
2023/05/21 05:31:04;;;;;;;9.02;5.30;;;13.80;99.90;;;;;;5065010;28;20467;-75
2023/05/21 05:33:30;;;;;;;8.70;5.03;;;13.90;99.90;;;;;;5030685;28;20175;-75
2023/05/21 05:35:55;;;;;;;8.23;4.93;;;13.90;99.90;;;;;;5016371;28;20044;-74
2023/05/21 05:38:21;;;;;;;9.90;4.80;;;13.90;99.90;;;;;;5016273;28;20117;-74
2023/05/21 05:40:47;;;;;;;8.15;4.95;;;13.90;99.90;;;;;;5033043;28;20071;-74
2023/05/21 05:43:13;;;;;;;8.43;5.10;;;14.00;99.90;;;;;;5064769;28;20432;-75
2023/05/21 05:45:38;;;;;;;8.40;4.50;;;14.00;99.90;;;;;;5061345;28;20040;-75
2023/05/21 05:48:05;;;;;;;9.88;5.43;;;14.10;99.90;;;;;;5020872;28;21305;-74
2023/05/21 05:50:30;;;;;;;7.03;4.32;;;14.10;99.90;;;;;;5027639;28;20112;-74
2023/05/21 05:52:56;;;;;;;9.93;5.30;;;14.10;99.90;;;;;;5022381;28;20128;-74
2023/05/21 05:55:23;;;;;;;6.53;5.10;;;14.10;99.90;;;;;;5027242;28;20040;-74
2023/05/21 05:57:50;;;;;;;7.78;5.50;;;14.20;99.90;;;;;;5028892;28;20077;-74
2023/05/21 06:00:16;;;;;;;8.48;4.32;;;14.20;99.90;;;;;;5011775;28;20081;-74
2023/05/21 06:02:42;;;;;;;5.10;4.15;;;14.20;99.90;;;;;;5044489;28;20037;-74
2023/05/21 06:05:08;;;;;;;6.22;4.40;;;14.30;99.90;;;;;;5028259;28;20040;-75
2023/05/21 06:07:37;;;;;;;9.23;5.10;;;14.40;99.90;;;;;;5042658;28;20057;-74
2023/05/21 06:10:04;;;;;;;7.95;4.70;;;14.40;99.90;;;;;;5026995;28;20045;-75
2023/05/21 06:12:30;;;;;;;6.95;4.32;;;14.40;99.90;;;;;;5026120;28;20037;-75
2023/05/21 06:14:56;;;;;;;6.55;3.85;;;14.50;99.90;;;;;;5009951;28;20055;-74
2023/05/21 06:17:22;;;;;;;7.90;4.55;;;14.50;99.90;;;;;;5027937;28;20043;-75
2023/05/21 06:19:47;;;;;;;7.30;4.63;;;14.60;99.90;;;;;;5027019;28;20041;-74
2023/05/21 06:22:13;;;;;;;9.38;4.90;;;14.60;99.90;;;;;;5028822;28;20033;-74
2023/05/21 06:24:39;;;;;;;5.78;4.28;;;14.60;99.90;;;;;;5028580;28;20652;-74
2023/05/21 06:27:05;;;;;;;8.07;4.00;;;14.60;99.90;;;;;;5043187;28;20098;-74
2023/05/21 06:29:30;;;;;;;6.72;4.32;;;14.60;99.90;;;;;;5012264;28;20293;-74
2023/05/21 06:31:56;;;;;;;7.80;4.40;;;14.60;99.90;;;;;;5027486;28;20112;-74
2023/05/21 06:34:22;;;;;;;10.85;8.45;;;14.70;99.90;;;;;;5028783;28;20724;-73
2023/05/21 06:36:47;;;;;;;7.18;4.00;;;14.70;99.90;;;;;;5029147;28;20094;-73
2023/05/21 06:39:13;;;;;;;8.57;4.82;;;14.70;99.90;;;;;;5028438;28;20041;-73
2023/05/21 06:41:39;;;;;;;7.03;4.03;;;14.80;99.90;;;;;;5026222;28;20561;-73
2023/05/21 06:44:05;;;;;;;6.70;4.88;;;14.90;99.90;;;;;;5024064;28;20072;-73
2023/05/21 06:46:31;;;;;;;9.82;4.03;;;15.00;99.90;;;;;;5027690;28;20079;-73
2023/05/21 06:48:56;;;;;;;7.60;4.15;;;15.00;99.90;;;;;;5026447;28;20051;-73
2023/05/21 06:51:22;;;;;;;5.85;4.07;;;15.10;99.90;;;;;;5027574;28;20393;-73
2023/05/21 06:53:48;;;;;;;8.15;3.83;;;15.10;99.90;;;;;;5028782;28;20068;-73
2023/05/21 06:56:14;;;;;;;6.68;4.35;;;15.30;99.90;;;;;;5026971;28;20037;-73
2023/05/21 06:58:39;;;;;;;6.65;3.75;;;15.30;99.90;;;;;;5026064;28;20123;-73
2023/05/21 07:01:05;;;;;;;6.75;3.88;;;15.40;99.90;;;;;;5026305;28;20521;-72
2023/05/21 07:03:31;;;;;;;7.53;4.15;;;15.40;99.90;;;;;;5043786;28;20146;-73
2023/05/21 07:05:57;;;;;;;6.07;3.72;;;15.50;99.90;;;;;;5027286;28;20033;-73
2023/05/21 07:08:23;;;;;;;4.70;3.25;;;15.50;99.90;;;;;;5026285;28;20033;-73
2023/05/21 07:10:48;;;;;;;6.38;3.67;;;15.60;99.90;;;;;;5024505;28;20037;-73
2023/05/21 07:13:15;;;;;;;7.97;4.50;;;15.60;99.90;;;;;;5023939;28;20095;-73
2023/05/21 07:15:41;;;;;;;7.90;4.20;;;15.60;99.90;;;;;;5026316;28;20045;-73
2023/05/21 07:18:06;;;;;;;6.38;3.78;;;15.70;99.90;;;;;;5010613;28;20045;-73
2023/05/21 07:20:32;;;;;;;8.85;3.45;;;15.70;99.90;;;;;;5041355;28;20041;-73
2023/05/21 07:22:58;;;;;;;7.28;3.50;;;15.70;99.90;;;;;;5028063;28;20303;-72
2023/05/21 07:25:24;;;;;;;5.70;3.47;;;15.70;99.90;;;;;;5027239;28;20050;-73
2023/05/21 07:27:50;;;;;;;7.50;3.72;;;15.80;99.90;;;;;;5027221;28;20038;-73
2023/05/21 07:30:16;;;;;;;6.65;3.22;;;15.90;99.90;;;;;;5026020;28;20048;-73
2023/05/21 07:32:41;;;;;;;6.70;3.53;;;15.90;99.90;;;;;;5029276;28;20040;-73
2023/05/21 07:35:07;;;;;;;4.07;3.20;;;15.90;99.90;;;;;;5026418;28;20042;-73
2023/05/21 07:37:33;;;;;;;7.78;3.75;;;16.00;99.90;;;;;;5060503;28;20045;-73
2023/05/21 07:39:59;;;;;;;7.47;3.92;;;16.10;99.90;;;;;;5024791;28;20520;-72
2023/05/21 07:42:25;;;;;;;8.60;4.70;;;16.20;99.90;;;;;;5024862;28;20072;-73
2023/05/21 07:44:51;;;;;;;8.13;4.40;;;16.30;99.90;;;;;;5010090;28;20049;-72
2023/05/21 07:47:17;;;;;;;6.60;4.22;;;16.40;99.90;;;;;;5058337;28;20103;-72
2023/05/21 07:49:43;;;;;;;6.95;4.63;;;16.50;99.90;;;;;;5027836;28;20474;-72
2023/05/21 07:52:08;;;;;;;6.05;4.30;;;16.60;99.90;;;;;;5026145;28;20071;-73
2023/05/21 07:54:34;;;;;;;8.32;4.40;;;16.60;99.90;;;;;;5041830;28;20041;-72
2023/05/21 07:57:03;;;;;;;6.80;3.67;;;16.50;99.90;;;;;;5058467;28;20087;-72
2023/05/21 07:59:28;;;;;;;7.53;3.92;;;16.60;99.90;;;;;;5056607;28;20478;-73
2023/05/21 08:01:54;;;;;;;5.10;3.63;;;16.60;99.90;;;;;;5024613;28;20033;-73
2023/05/21 08:04:20;;;;;;;6.32;3.95;;;16.60;99.90;;;;;;5058415;28;20088;-73
2023/05/21 08:06:47;;;;;;;6.20;3.80;;;16.80;99.90;;;;;;5025759;28;20048;-73
2023/05/21 08:09:13;;;;;;;9.57;4.03;;;16.90;99.90;;;;;;5006352;28;20116;-74
2023/05/21 08:11:39;;;;;;;7.03;3.75;;;17.00;99.90;;;;;;5028266;28;20192;-73
2023/05/21 08:14:05;;;;;;;6.15;3.28;;;17.00;99.90;;;;;;5026228;28;20041;-73
2023/05/21 08:16:31;;;;;;;5.57;3.95;;;17.10;99.90;;;;;;5026668;28;20482;-73
2023/05/21 08:18:56;;;;;;;6.47;3.60;;;17.10;99.90;;;;;;5026220;28;20041;-73
2023/05/21 08:21:22;;;;;;;6.72;3.65;;;17.30;99.90;;;;;;5026304;28;20493;-73
2023/05/21 08:23:50;;;;;;;5.90;3.72;;;17.40;99.90;;;;;;5026089;28;20386;-74
2023/05/21 08:26:16;;;;;;;4.97;3.63;;;17.30;99.90;;;;;;5028018;28;20059;-75
2023/05/21 08:28:42;;;;;;;6.03;3.35;;;17.40;99.90;;;;;;5010277;28;20132;-75
2023/05/21 08:31:08;;;;;;;6.57;3.90;;;17.50;99.90;;;;;;5058524;28;20081;-74
2023/05/21 08:33:37;;;;;;;7.05;3.90;;;17.70;99.90;;;;;;5027017;28;20037;-74
2023/05/21 08:36:05;;;;;;;5.80;4.20;;;17.60;99.90;;;;;;5029251;28;20041;-73
2023/05/21 08:38:31;;;;;;;7.85;4.45;;;17.70;99.90;;;;;;5027195;28;20060;-74
2023/05/21 08:40:58;;;;;;;8.63;4.35;;;17.80;99.90;;;;;;5012551;28;20533;-73
2023/05/21 08:43:27;;;;;;;5.45;3.40;;;18.20;99.90;;;;;;5027859;28;20037;-74
2023/05/21 08:45:59;;;;;;;6.15;4.25;;;18.40;99.90;;;;;;5053682;28;20056;-74
2023/05/21 08:48:25;;;;;;;7.15;4.30;;;18.60;99.90;;;;;;5021062;28;20057;-74
2023/05/21 08:50:52;;;;;;;7.35;4.35;;;18.60;99.90;;;;;;5045516;28;20044;-74
2023/05/21 08:53:18;;;;;;;6.03;4.13;;;18.50;99.90;;;;;;5063265;28;20118;-75
2023/05/21 08:55:43;;;;;;;7.75;4.20;;;18.50;99.90;;;;;;5030193;28;20112;-73
2023/05/21 08:58:09;;;;;;;7.50;4.22;;;18.30;99.90;;;;;;5029980;28;20095;-74
2023/05/21 09:00:36;;;;;;;9.63;4.97;;;18.20;99.90;;;;;;5061132;28;20105;-73
2023/05/21 09:03:06;;;;;;;6.25;4.25;;;18.20;99.90;;;;;;5027880;28;20052;-73
2023/05/21 09:05:33;;;;;;;6.95;4.45;;;18.30;99.90;;;;;;5029573;28;20125;-73
2023/05/21 09:08:12;;;;;;;5.88;4.30;;;18.30;99.90;;;;;;5030475;28;20524;-73
2023/05/21 09:10:41;;;;;;;9.45;4.07;;;18.20;99.90;;;;;;5025750;28;20107;-69
2023/05/21 09:13:09;;;;;;;6.90;4.10;;;18.20;99.90;;;;;;5029889;28;20045;-68
2023/05/21 09:15:35;;;;;;;5.53;3.72;;;18.10;99.90;;;;;;5028555;28;20446;-68
2023/05/21 09:18:01;;;;;;;5.53;3.70;;;18.10;99.90;;;;;;5027608;28;20048;-68
2023/05/21 09:20:27;;;;;;;6.72;4.88;;;18.10;99.90;;;;;;5032158;28;20492;-68
2023/05/21 09:22:54;;;;;;;7.65;4.22;;;18.20;99.90;;;;;;5029407;28;20038;-70
2023/05/21 09:25:26;;;;;;;6.53;4.05;;;18.40;99.90;;;;;;5029203;28;20045;-69
2023/05/21 09:27:54;;;;;;;7.35;4.15;;;18.50;99.90;;;;;;5024165;28;20136;-69
2023/05/21 09:30:20;;;;;;;5.80;3.90;;;18.70;99.90;;;;;;5061671;28;20037;-68
2023/05/21 09:32:57;;;;;;;7.60;4.30;;;18.80;99.90;;;;;;5029494;28;20103;-71
2023/05/21 09:35:23;;;;;;;8.65;4.45;;;19.10;99.90;;;;;;5030141;28;20033;-70
2023/05/21 09:37:51;;;;;;;5.78;4.43;;;19.30;99.90;;;;;;5028505;28;20044;-69
2023/05/21 09:40:19;;;;;;;6.38;4.22;;;19.30;99.90;;;;;;5059900;28;20041;-71
2023/05/21 09:42:50;;;;;;;5.88;4.18;;;19.50;99.90;;;;;;5028799;28;20485;-70
2023/05/21 09:45:18;;;;;;;6.95;4.53;;;19.60;99.90;;;;;;5026480;28;20045;-70
2023/05/21 09:47:45;;;;;;;6.72;3.97;;;19.70;99.90;;;;;;5035193;28;20053;-70
2023/05/21 09:50:22;;;;;;;7.72;4.65;;;19.70;99.90;;;;;;5030236;28;20132;-70
2023/05/21 09:52:51;;;;;;;7.43;4.10;;;19.60;99.90;;;;;;5027936;28;20029;-71
2023/05/21 09:55:20;;;;;;;7.35;4.32;;;19.70;99.90;;;;;;5033087;28;20103;-70
2023/05/21 09:57:47;;;;;;;8.25;6.15;;;19.80;99.90;;;;;;5050273;28;20378;-71
2023/05/21 10:00:21;;;;;;;8.35;6.32;;;20.00;99.90;;;;;;5029616;28;20044;-70
2023/05/21 10:02:49;;;;;;;6.82;4.45;;;20.30;99.90;;;;;;5030936;28;20053;-70
2023/05/21 10:05:16;;;;;;;4.82;3.95;;;20.50;99.90;;;;;;5033314;28;20491;-69
2023/05/21 10:07:47;;;;;;;8.98;4.55;;;20.40;99.90;;;;;;5033727;28;20127;-70
2023/05/21 10:10:13;;;;;;;6.70;4.57;;;20.40;99.90;;;;;;5035970;28;20497;-70
2023/05/21 10:12:44;;;;;;;5.45;4.00;;;20.40;99.90;;;;;;5065901;28;20037;-70
2023/05/21 10:15:19;;;;;;;6.55;4.50;;;20.60;99.90;;;;;;5032453;28;20041;-70
2023/05/21 10:17:47;;;;;;;6.18;4.32;;;20.70;99.90;;;;;;5064764;28;20049;-71
2023/05/21 10:20:13;;;;;;;8.20;4.55;;;20.90;99.90;;;;;;5031307;28;20079;-70
2023/05/21 10:22:39;;;;;;;8.05;4.75;;;20.90;99.90;;;;;;5032173;28;20080;-70
2023/05/21 10:25:09;;;;;;;8.43;4.75;;;20.70;99.90;;;;;;5030503;28;20041;-69
2023/05/21 10:27:36;;;;;;;7.32;5.05;;;20.70;99.90;;;;;;5048501;28;20405;-68
2023/05/21 10:30:03;;;;;;;6.35;4.60;;;20.70;99.90;;;;;;5050487;28;20052;-67
2023/05/21 10:32:30;;;;;;;8.18;5.07;;;20.80;99.90;;;;;;5048510;28;20032;-67
2023/05/21 10:34:56;;;;;;;8.82;4.30;;;20.80;99.90;;;;;;5048256;28;20041;-68
2023/05/21 10:37:25;;;;;;;5.38;4.70;;;21.10;99.90;;;;;;5050256;28;20044;-67
2023/05/21 10:39:51;;;;;;;7.03;4.63;;;21.20;99.90;;;;;;5050329;28;20429;-68
2023/05/21 10:42:32;;;;;;;11.20;5.25;;;21.30;99.90;;;;;;5049187;28;20405;-68
2023/05/21 10:45:35;;;;;;;7.82;5.65;;;21.50;99.90;;;;;;5031988;28;20124;-82
2023/05/21 10:48:38;;;;;;;9.55;5.40;;;21.70;99.90;;;;;;5065872;28;20064;-84
2023/05/21 10:51:24;;;;;;;7.50;6.10;;;21.80;99.90;;;;;;5016689;28;20045;-78
2023/05/21 10:54:33;;;;;;;8.10;5.40;;;22.00;99.90;;;;;;5063055;28;20045;-88
2023/05/21 10:58:02;;;;;;;8.95;7.28;;;21.90;99.90;;;;;;5053279;28;20094;-87
2023/05/21 11:00:30;;;;;;;7.28;5.75;;;22.00;99.90;;;;;;5015345;28;20076;-72
2023/05/21 11:02:57;;;;;;;6.38;5.32;;;21.90;99.90;;;;;;5049334;28;20515;-72
2023/05/21 11:05:40;;;;;;;5.95;4.95;;;21.80;99.90;;;;;;5031269;28;20472;-72
2023/05/21 11:08:20;;;;;;;6.32;5.00;;;21.90;99.90;;;;;;5031525;28;20459;-73
2023/05/21 11:10:54;;;;;;;8.48;5.72;;;22.00;99.90;;;;;;5029099;28;20037;-73
2023/05/21 11:13:20;;;;;;;22.88;19.23;;;22.10;99.90;;;;;;5028789;28;20041;-73
2023/05/21 11:16:01;;;;;;;10.98;6.88;;;22.20;99.90;;;;;;5032000;28;20047;-73
2023/05/21 11:18:33;;;;;;;9.98;6.30;;;22.30;99.90;;;;;;5030041;28;20060;-72
2023/05/21 11:21:13;;;;;;;8.43;5.55;;;22.40;99.90;;;;;;5048293;28;20106;-74
2023/05/21 11:24:01;;;;;;;7.80;5.22;;;22.30;99.90;;;;;;5032362;28;20412;-72
2023/05/21 11:26:51;;;;;;;9.20;6.03;;;22.20;99.90;;;;;;5063100;28;20047;-73
2023/05/21 11:29:18;;;;;;;7.30;5.95;;;22.40;99.90;;;;;;5030963;28;20044;-72
2023/05/21 11:31:57;;;;;;;6.47;5.20;;;22.50;99.90;;;;;;5029590;28;20063;-73
2023/05/21 11:34:27;;;;;;;7.13;6.10;;;22.70;99.90;;;;;;5029540;28;20120;-73
2023/05/21 11:37:26;;;;;;;6.32;5.25;;;23.10;99.90;;;;;;5035284;28;20045;-73
2023/05/21 11:39:53;;;;;;;8.05;6.57;;;23.40;99.90;;;;;;5060097;28;20044;-73
2023/05/21 11:42:29;;;;;;;10.27;7.57;;;23.60;99.90;;;;;;5030305;28;20053;-72
2023/05/21 11:44:58;;;;;;;11.32;8.32;;;23.80;99.90;;;;;;5030775;28;20053;-72
2023/05/21 11:47:25;;;;;;;8.63;7.07;;;23.80;99.90;;;;;;5026048;28;20055;-73
2023/05/21 11:49:51;;;;;;;11.13;7.82;;;23.90;99.90;;;;;;5056099;28;20136;-74
2023/05/21 11:52:18;;;;;;;10.40;8.82;;;24.00;99.90;;;;;;5027454;28;20793;-73
2023/05/21 11:54:47;;;;;;;10.10;9.07;;;24.00;99.90;;;;;;5028056;28;20053;-73
2023/05/21 11:57:17;;;;;;;10.05;8.65;;;23.90;99.90;;;;;;5026735;28;20144;-70
2023/05/21 11:59:44;;;;;;;8.80;7.88;;;23.70;99.90;;;;;;5027644;28;20381;-71
2023/05/21 12:02:15;;;;;;;12.10;9.93;;;23.90;99.90;;;;;;5027619;28;20099;-70
2023/05/21 12:04:45;;;;;;;10.90;9.80;;;24.10;99.90;;;;;;5059778;28;20056;-70
2023/05/21 12:07:13;;;;;;;12.30;10.93;;;24.10;99.90;;;;;;5041994;28;20090;-68
2023/05/21 12:09:40;;;;;;;11.13;10.02;;;24.00;99.90;;;;;;5028402;28;20156;-69
2023/05/21 12:12:08;;;;;;;13.70;11.02;;;24.00;99.90;;;;;;5025135;28;20049;-69
2023/05/21 12:14:34;;;;;;;12.60;9.82;;;23.90;99.30;;;;;;5025726;28;20081;-69
2023/05/21 12:17:01;;;;;;;11.90;10.70;;;23.90;99.90;;;;;;5027311;28;20080;-66
2023/05/21 12:19:30;;;;;;;12.45;10.63;;;23.90;99.90;;;;;;5057809;28;20376;-69
2023/05/21 12:21:58;;;;;;;12.05;10.82;;;24.00;99.90;;;;;;5028657;28;20048;-70
2023/05/21 12:24:24;;;;;;;12.13;10.75;;;24.20;99.90;;;;;;5030097;28;20049;-69
2023/05/21 12:26:50;;;;;;;13.73;10.65;;;24.40;99.90;;;;;;5032539;28;20040;-69
2023/05/21 12:29:16;;;;;;;14.02;11.25;;;24.60;99.90;;;;;;5032866;28;20183;-69
2023/05/21 12:31:49;;;;;;;12.55;11.15;;;24.50;99.40;;;;;;5027523;28;20083;-69
2023/05/21 12:34:17;;;;;;;11.90;10.70;;;24.50;98.90;;;;;;5029060;28;20148;-70
2023/05/21 12:36:50;;;;;;;13.90;10.93;;;24.50;99.60;;;;;;5029549;28;20087;-69
2023/05/21 12:39:16;;;;;;;13.93;11.70;;;24.60;99.40;;;;;;5032169;28;20513;-70
2023/05/21 12:41:42;;;;;;;13.20;11.65;;;24.40;99.60;;;;;;5014426;28;20080;-70
2023/05/21 12:44:10;;;;;;;13.55;11.07;;;24.40;99.40;;;;;;5031461;28;20541;-70
2023/05/21 12:46:40;;;;;;;17.10;15.50;;;24.40;99.60;;;;;;5027712;28;20316;-72
2023/05/21 12:49:05;;;;;;;14.02;11.80;;;24.30;99.40;;;;;;5029601;28;20061;-72
2023/05/21 12:51:41;;;;;;;13.10;11.77;;;24.50;99.90;;;;;;5009968;28;20110;-69